createdAt,value
2018-09-15T00:00:07.651Z,72.01
2018-09-15T00:01:07.526Z,75.98
2018-09-15T00:02:07.402Z,72.07
2018-09-15T00:03:07.278Z,69.59
2018-09-15T00:04:07.158Z,67.01
2018-09-15T00:05:07.034Z,64.34
2018-09-15T00:06:06.909Z,61.92
2018-09-15T00:07:06.788Z,60.68
2018-09-15T00:08:06.665Z,59.34
2018-09-15T00:09:06.544Z,58.97
2018-09-15T00:10:06.420Z,58.77
2018-09-15T00:11:06.315Z,57.63
2018-09-15T00:12:06.173Z,55.24
2018-09-15T00:13:06.050Z,60.58
2018-09-15T00:14:05.926Z,60.02
2018-09-15T00:15:05.804Z,58.01
2018-09-15T00:16:05.681Z,57.72
2018-09-15T00:17:05.558Z,58.11
2018-09-15T00:18:05.432Z,58.87
2018-09-15T00:19:05.310Z,64.59
2018-09-15T00:20:05.190Z,63.39
2018-09-15T00:21:05.063Z,61.83
2018-09-15T00:22:04.939Z,62.05
2018-09-15T00:23:04.832Z,61.95
2018-09-15T00:24:04.692Z,68.44
2018-09-15T00:25:04.568Z,80.47
2018-09-15T00:26:04.448Z,85.82
2018-09-15T00:27:04.321Z,85.53
2018-09-15T00:28:04.199Z,84.20
2018-09-15T00:29:04.080Z,81.14
2018-09-15T00:30:03.952Z,80.38
2018-09-15T00:31:03.828Z,81.14
2018-09-15T00:32:03.703Z,80.47
2018-09-15T00:33:03.583Z,80.95
2018-09-15T00:34:03.457Z,85.25
2018-09-15T00:35:03.333Z,82.38
2018-09-15T00:36:03.211Z,81.24
2018-09-15T00:37:03.089Z,82.09
2018-09-15T00:38:02.961Z,80.95
2018-09-15T00:39:02.934Z,80.38
2018-09-15T00:40:02.717Z,82.38
2018-09-15T00:41:02.593Z,74.42
2018-09-15T00:42:02.467Z,74.52
2018-09-15T00:43:02.344Z,72.13
2018-09-15T00:44:02.220Z,72.32
2018-09-15T00:45:02.101Z,69.46
2018-09-15T00:46:01.973Z,74.32
2018-09-15T00:47:01.848Z,71.37
2018-09-15T00:48:01.728Z,68.41
2018-09-15T00:49:01.603Z,68.22
2018-09-15T00:50:01.482Z,67.07
2018-09-15T00:51:01.356Z,64.97
2018-09-15T00:52:01.232Z,64.97
2018-09-15T00:53:01.107Z,63.54
2018-09-15T00:54:00.983Z,62.59
2018-09-15T00:55:00.859Z,63.45
2018-09-15T00:56:00.738Z,63.64
2018-09-15T00:57:00.614Z,62.11
2018-09-15T00:58:00.487Z,62.02
2018-09-15T00:59:00.363Z,63.26
2018-09-15T01:00:00.241Z,62.94
2018-09-15T01:01:00.116Z,62.18
2018-09-15T01:01:59.993Z,62.08
2018-09-15T01:02:59.868Z,62.18
2018-09-15T01:03:59.746Z,61.41
2018-09-15T01:04:59.620Z,62.84
2018-09-15T01:05:59.495Z,63.32
2018-09-15T01:06:59.372Z,64.37
2018-09-15T01:07:59.248Z,63.32
2018-09-15T01:08:59.125Z,62.08
2018-09-15T01:09:59.000Z,62.08
2018-09-15T01:10:58.878Z,61.13
2018-09-15T01:11:58.757Z,60.65
2018-09-15T01:12:58.629Z,59.99
2018-09-15T01:13:58.572Z,61.32
2018-09-15T01:14:58.381Z,61.41
2018-09-15T01:15:58.255Z,61.35
2018-09-15T01:16:58.133Z,62.97
2018-09-15T01:17:58.009Z,65.83
2018-09-15T01:18:57.883Z,68.12
2018-09-15T01:19:57.778Z,70.51
2018-09-15T01:20:57.638Z,71.75
2018-09-15T01:21:57.511Z,69.62
2018-09-15T01:22:57.387Z,69.62
2018-09-15T01:23:57.263Z,65.99
2018-09-15T01:24:57.142Z,63.70
2018-09-15T01:25:57.022Z,62.65
2018-09-15T01:26:56.892Z,63.04
2018-09-15T01:27:56.767Z,64.28
2018-09-15T01:28:56.644Z,60.55
2018-09-15T01:29:56.517Z,60.36
2018-09-15T01:30:56.396Z,60.65
2018-09-15T01:31:56.272Z,59.51
2018-09-15T01:32:56.146Z,59.51
2018-09-15T01:33:56.022Z,59.60
2018-09-15T01:34:55.899Z,62.08
2018-09-15T01:35:55.775Z,65.33
2018-09-15T01:36:55.651Z,62.84
2018-09-15T01:37:55.524Z,63.60
2018-09-15T01:38:55.400Z,61.41
2018-09-15T01:39:55.277Z,62.46
2018-09-15T01:40:55.154Z,64.47
2018-09-15T01:41:55.028Z,61.13
2018-09-15T01:42:54.907Z,59.03
2018-09-15T01:43:54.782Z,60.17
2018-09-15T01:44:54.657Z,62.08
2018-09-15T01:45:54.531Z,61.22
2018-09-15T01:46:54.406Z,62.46
2018-09-15T01:47:54.283Z,60.17
2018-09-15T01:48:54.161Z,59.12
2018-09-15T01:49:54.033Z,62.08
2018-09-15T01:50:53.908Z,61.13
2018-09-15T01:51:53.786Z,60.84
2018-09-15T01:52:53.676Z,66.22
2018-09-15T01:53:53.538Z,70.61
2018-09-15T01:54:53.417Z,73.28
2018-09-15T01:55:53.289Z,75.76
2018-09-15T01:56:53.170Z,78.23
2018-09-15T01:57:53.043Z,79.00
2018-09-15T01:58:52.917Z,77.19
2018-09-15T01:59:52.795Z,81.01
2018-09-15T02:00:52.670Z,80.91
2018-09-15T02:01:52.545Z,81.48
2018-09-15T02:02:52.420Z,82.24
2018-09-15T02:03:52.295Z,81.38
2018-09-15T02:04:52.175Z,82.63
2018-09-15T02:05:52.049Z,80.53
2018-09-15T02:06:51.925Z,78.52
2018-09-15T02:07:51.804Z,78.91
2018-09-15T02:08:51.678Z,77.28
2018-09-15T02:09:51.554Z,79.48
2018-09-15T02:10:51.428Z,80.53
2018-09-15T02:11:51.308Z,82.24
2018-09-15T02:12:51.181Z,90.83
2018-09-15T02:13:51.060Z,84.92
2018-09-15T02:14:50.934Z,79.48
2018-09-15T02:15:50.814Z,78.23
2018-09-15T02:16:50.688Z,76.71
2018-09-15T02:17:50.562Z,72.61
2018-09-15T02:18:50.440Z,69.93
2018-09-15T02:19:50.316Z,67.07
2018-09-15T02:20:50.201Z,64.88
2018-09-15T02:21:50.067Z,64.40
2018-09-15T02:22:49.986Z,68.51
2018-09-15T02:23:49.820Z,66.12
2018-09-15T02:24:49.695Z,67.55
2018-09-15T02:25:49.572Z,68.32
2018-09-15T02:26:49.448Z,65.74
2018-09-15T02:27:49.325Z,64.97
2018-09-15T02:28:49.228Z,66.41
2018-09-15T02:29:49.074Z,66.31
2018-09-15T02:30:48.953Z,65.26
2018-09-15T02:31:48.830Z,67.07
2018-09-15T02:32:48.706Z,64.12
2018-09-15T02:33:48.580Z,62.02
2018-09-15T02:34:48.457Z,61.16
2018-09-15T02:35:48.331Z,62.78
2018-09-15T02:36:48.210Z,62.59
2018-09-15T02:37:48.084Z,65.45
2018-09-15T02:38:47.962Z,73.47
2018-09-15T02:39:47.837Z,77.57
2018-09-15T02:40:47.715Z,78.43
2018-09-15T02:41:47.588Z,77.19
2018-09-15T02:42:47.463Z,76.04
2018-09-15T02:43:47.339Z,77.47
2018-09-15T02:44:47.218Z,79.48
2018-09-15T02:45:47.099Z,80.33
2018-09-15T02:46:46.972Z,78.23
2018-09-15T02:47:46.847Z,75.85
2018-09-15T02:48:46.721Z,75.57
2018-09-15T02:49:46.597Z,73.66
2018-09-15T02:50:46.475Z,73.18
2018-09-15T02:51:46.354Z,72.99
2018-09-15T02:52:46.227Z,69.46
2018-09-15T02:53:46.103Z,69.93
2018-09-15T02:54:46.033Z,68.41
2018-09-15T02:55:45.858Z,68.32
2018-09-15T02:56:45.733Z,67.93
2018-09-15T02:57:45.609Z,67.36
2018-09-15T02:58:45.484Z,66.98
2018-09-15T02:59:45.368Z,66.98
2018-09-15T03:00:45.238Z,68.03
2018-09-15T03:01:45.115Z,75.76
2018-09-15T03:02:44.989Z,78.23
2018-09-15T03:03:44.866Z,79.86
2018-09-15T03:04:44.742Z,79.28
2018-09-15T03:05:44.622Z,77.38
2018-09-15T03:06:44.494Z,76.52
2018-09-15T03:07:44.372Z,74.99
2018-09-15T03:08:44.251Z,75.28
2018-09-15T03:09:44.124Z,76.62
2018-09-15T03:10:44.021Z,75.95
2018-09-15T03:11:43.880Z,75.85
2018-09-15T03:12:43.754Z,71.08
2018-09-15T03:13:43.628Z,70.09
2018-09-15T03:14:43.505Z,68.85
2018-09-15T03:15:43.384Z,65.89
2018-09-15T03:16:43.257Z,62.84
2018-09-15T03:17:43.134Z,61.99
2018-09-15T03:18:43.012Z,63.23
2018-09-15T03:19:42.887Z,62.56
2018-09-15T03:20:42.765Z,61.99
2018-09-15T03:21:42.639Z,63.60
2018-09-15T03:22:42.514Z,64.65
2018-09-15T03:23:42.393Z,64.28
2018-09-15T03:24:42.270Z,63.89
2018-09-15T03:25:42.143Z,63.23
2018-09-15T03:26:42.019Z,62.37
2018-09-15T03:27:41.895Z,64.65
2018-09-15T03:28:41.771Z,66.18
2018-09-15T03:29:41.648Z,67.04
2018-09-15T03:30:41.524Z,66.94
2018-09-15T03:31:41.399Z,68.28
2018-09-15T03:32:41.277Z,68.57
2018-09-15T03:33:41.154Z,68.47
2018-09-15T03:34:41.026Z,71.04
2018-09-15T03:35:40.903Z,74.19
2018-09-15T03:36:40.783Z,72.86
2018-09-15T03:37:40.654Z,71.14
2018-09-15T03:38:40.530Z,70.95
2018-09-15T03:39:40.406Z,72.96
2018-09-15T03:40:40.282Z,80.96
2018-09-15T03:41:40.301Z,82.30
2018-09-15T03:42:40.033Z,77.25
2018-09-15T03:43:39.910Z,74.29
2018-09-15T03:44:39.786Z,75.34
2018-09-15T03:45:39.662Z,75.72
2018-09-15T03:46:39.537Z,73.52
2018-09-15T03:47:39.413Z,78.30
2018-09-15T03:48:39.289Z,78.01
2018-09-15T03:49:39.167Z,75.81
2018-09-15T03:50:39.038Z,78.96
2018-09-15T03:51:38.917Z,80.58
2018-09-15T03:52:38.793Z,78.49
2018-09-15T03:53:38.666Z,78.77
2018-09-15T03:54:38.544Z,81.06
2018-09-15T03:55:38.419Z,80.87
2018-09-15T03:56:38.295Z,83.67
2018-09-15T03:57:38.171Z,83.16
2018-09-15T03:58:38.048Z,88.31
2018-09-15T03:59:37.923Z,88.50
2018-09-15T04:00:37.799Z,89.74
2018-09-15T04:01:37.675Z,87.26
2018-09-15T04:02:37.553Z,86.40
2018-09-15T04:03:37.427Z,82.49
2018-09-15T04:04:37.305Z,80.39
2018-09-15T04:05:37.181Z,75.34
2018-09-15T04:06:37.056Z,73.33
2018-09-15T04:07:36.931Z,80.68
2018-09-15T04:08:36.812Z,75.53
2018-09-15T04:09:36.682Z,72.48
2018-09-15T04:10:36.558Z,73.24
2018-09-15T04:11:36.435Z,76.29
2018-09-15T04:12:36.311Z,83.54
2018-09-15T04:13:36.186Z,86.78
2018-09-15T04:14:36.063Z,86.11
2018-09-15T04:15:35.940Z,85.06
2018-09-15T04:16:35.814Z,82.01
2018-09-15T04:17:35.688Z,80.20
2018-09-15T04:18:35.565Z,76.48
2018-09-15T04:19:35.441Z,75.43
2018-09-15T04:20:35.320Z,75.53
2018-09-15T04:21:35.191Z,74.57
2018-09-15T04:22:35.071Z,74.96
2018-09-15T04:23:34.943Z,74.96
2018-09-15T04:24:34.824Z,75.72
2018-09-15T04:25:34.694Z,81.35
2018-09-15T04:26:34.574Z,89.45
2018-09-15T04:27:34.448Z,91.50
2018-09-15T04:28:34.348Z,90.73
2018-09-15T04:29:34.199Z,82.72
2018-09-15T04:30:34.074Z,84.82
2018-09-15T04:31:33.952Z,80.20
2018-09-15T04:32:33.828Z,78.86
2018-09-15T04:33:33.703Z,76.10
2018-09-15T04:34:33.579Z,74.48
2018-09-15T04:35:33.454Z,73.43
2018-09-15T04:36:33.331Z,72.19
2018-09-15T04:37:33.205Z,72.96
2018-09-15T04:38:33.085Z,72.86
2018-09-15T04:39:32.959Z,75.43
2018-09-15T04:40:32.832Z,74.10
2018-09-15T04:41:32.714Z,71.14
2018-09-15T04:42:32.584Z,74.29
2018-09-15T04:43:32.462Z,71.62
2018-09-15T04:44:32.338Z,68.57
2018-09-15T04:45:32.215Z,67.42
2018-09-15T04:46:32.090Z,70.67
2018-09-15T04:47:31.966Z,72.00
2018-09-15T04:48:31.840Z,70.76
2018-09-15T04:49:31.715Z,68.76
2018-09-15T04:50:31.592Z,68.18
2018-09-15T04:51:31.467Z,68.09
2018-09-15T04:52:31.394Z,71.52
2018-09-15T04:53:31.219Z,71.52
2018-09-15T04:54:31.094Z,75.24
2018-09-15T04:55:30.971Z,73.33
2018-09-15T04:56:30.849Z,73.43
2018-09-15T04:57:30.721Z,72.76
2018-09-15T04:58:30.597Z,72.76
2018-09-15T04:59:30.474Z,71.23
2018-09-15T05:00:30.350Z,68.76
2018-09-15T05:01:30.223Z,67.71
2018-09-15T05:02:30.099Z,68.28
2018-09-15T05:03:29.977Z,71.23
2018-09-15T05:04:29.852Z,70.76
2018-09-15T05:05:29.727Z,68.18
2018-09-15T05:06:29.647Z,69.04
2018-09-15T05:07:29.479Z,67.99
2018-09-15T05:08:29.354Z,66.94
2018-09-15T05:09:29.229Z,67.80
2018-09-15T05:10:29.113Z,69.71
2018-09-15T05:11:28.984Z,70.95
2018-09-15T05:12:28.869Z,70.47
2018-09-15T05:13:28.736Z,70.76
2018-09-15T05:14:28.610Z,70.09
2018-09-15T05:15:28.488Z,69.62
2018-09-15T05:16:28.362Z,67.90
2018-09-15T05:17:28.237Z,67.04
2018-09-15T05:18:28.111Z,66.47
2018-09-15T05:19:28.000Z,66.18
2018-09-15T05:20:27.864Z,66.28
2018-09-15T05:21:27.740Z,63.39
2018-09-15T05:22:27.617Z,64.81
2018-09-15T05:23:27.494Z,67.04
2018-09-15T05:24:27.367Z,69.23
2018-09-15T05:25:27.243Z,71.43
2018-09-15T05:26:27.124Z,70.47
2018-09-15T05:27:26.996Z,72.09
2018-09-15T05:28:26.871Z,72.57
2018-09-15T05:29:26.745Z,74.63
2018-09-15T05:30:26.622Z,71.52
2018-09-15T05:31:26.552Z,72.19
2018-09-15T05:32:26.372Z,70.63
2018-09-15T05:33:26.247Z,71.23
2018-09-15T05:34:26.124Z,70.95
2018-09-15T05:35:25.999Z,67.80
2018-09-15T05:36:25.876Z,65.80
2018-09-15T05:37:25.752Z,64.56
2018-09-15T05:38:25.626Z,64.47
2018-09-15T05:39:25.502Z,75.91
2018-09-15T05:40:25.380Z,68.57
2018-09-15T05:41:25.257Z,78.58
2018-09-15T05:42:25.129Z,75.24
2018-09-15T05:43:25.008Z,71.81
2018-09-15T05:44:24.882Z,71.04
2018-09-15T05:45:24.756Z,74.29
2018-09-15T05:46:24.631Z,73.33
2018-09-15T05:47:24.507Z,72.09
2018-09-15T05:48:24.386Z,81.73
2018-09-15T05:49:24.257Z,84.11
2018-09-15T05:50:24.134Z,90.59
2018-09-15T05:51:24.015Z,91.64
2018-09-15T05:52:23.886Z,82.49
2018-09-15T05:53:23.765Z,81.44
2018-09-15T05:54:23.635Z,78.67
2018-09-15T05:55:23.514Z,77.44
2018-09-15T05:56:23.389Z,74.29
2018-09-15T05:57:23.266Z,74.29
2018-09-15T05:58:23.173Z,74.38
2018-09-15T05:59:23.017Z,76.39
2018-09-15T06:00:22.948Z,80.58
2018-09-15T06:01:22.767Z,84.69
2018-09-15T06:02:22.643Z,88.59
2018-09-15T06:03:22.517Z,83.06
2018-09-15T06:04:22.393Z,81.35
2018-09-15T06:05:22.268Z,83.44
2018-09-15T06:06:22.146Z,85.16
2018-09-15T06:07:22.021Z,84.97
2018-09-15T06:08:21.896Z,82.72
2018-09-15T06:09:21.779Z,86.44
2018-09-15T06:10:21.649Z,93.51
2018-09-15T06:11:21.523Z,99.99
2018-09-15T06:12:21.401Z,99.99
2018-09-15T06:13:21.293Z,91.50
2018-09-15T06:14:21.152Z,93.70
2018-09-15T06:15:21.029Z,96.03
2018-09-15T06:16:20.903Z,97.56
2018-09-15T06:17:20.784Z,99.99
2018-09-15T06:18:20.656Z,99.99
2018-09-15T06:19:20.536Z,99.99
2018-09-15T06:20:20.409Z,99.85
2018-09-15T06:21:20.285Z,99.99
2018-09-15T06:22:20.158Z,99.99
2018-09-15T06:23:20.036Z,99.99
2018-09-15T06:24:19.911Z,99.99
2018-09-15T06:25:19.794Z,99.99
2018-09-15T06:26:19.667Z,99.99
2018-09-15T06:27:19.542Z,99.99
2018-09-15T06:28:19.431Z,99.99
2018-09-15T06:29:19.295Z,99.99
2018-09-15T06:30:19.169Z,99.99
2018-09-15T06:31:19.049Z,99.99
2018-09-15T06:32:18.925Z,99.99
2018-09-15T06:33:19.329Z,99.99
2018-09-15T06:34:18.677Z,99.99
2018-09-15T06:35:18.557Z,99.99
2018-09-15T06:36:18.433Z,99.99
2018-09-15T06:37:18.304Z,99.99
2018-09-15T06:38:18.184Z,99.99
2018-09-15T06:39:18.121Z,99.99
2018-09-15T06:40:17.940Z,99.99
2018-09-15T06:41:17.812Z,99.99
2018-09-15T06:42:17.693Z,99.99
2018-09-15T06:43:17.567Z,99.99
2018-09-15T06:44:17.446Z,99.99
2018-09-15T06:45:17.320Z,99.99
2018-09-15T06:46:17.196Z,99.99
2018-09-15T06:47:17.073Z,99.99
2018-09-15T06:48:16.948Z,99.99
2018-09-15T06:49:16.826Z,99.99
2018-09-15T06:50:16.702Z,99.99
2018-09-15T06:51:16.638Z,99.99
2018-09-15T06:52:16.455Z,99.99
2018-09-15T06:53:16.334Z,99.99
2018-09-15T06:54:16.210Z,99.99
2018-09-15T06:55:16.128Z,99.99
2018-09-15T06:56:15.964Z,99.99
2018-09-15T06:57:15.858Z,99.99
2018-09-15T06:58:15.713Z,99.99
2018-09-15T06:59:16.467Z,99.99
2018-09-15T07:00:15.570Z,99.99
2018-09-15T07:01:15.457Z,99.99
2018-09-15T07:02:15.343Z,99.99
2018-09-15T07:03:15.098Z,99.99
2018-09-15T07:04:14.977Z,99.99
2018-09-15T07:05:14.855Z,99.99
2018-09-15T07:06:14.732Z,99.99
2018-09-15T07:07:14.621Z,99.99
2018-09-15T07:08:14.486Z,99.99
2018-09-15T07:09:14.362Z,99.99
2018-09-15T07:10:14.240Z,99.99
2018-09-15T07:11:14.119Z,99.99
2018-09-15T07:12:13.997Z,99.99
2018-09-15T07:13:13.873Z,99.99
2018-09-15T07:14:13.753Z,99.99
2018-09-15T07:15:13.629Z,99.99
2018-09-15T07:16:13.505Z,99.99
2018-09-15T07:17:13.384Z,99.99
2018-09-15T07:18:13.261Z,99.99
2018-09-15T07:19:13.140Z,99.99
2018-09-15T07:20:13.044Z,99.99
2018-09-15T07:21:12.893Z,99.99
2018-09-15T07:22:12.771Z,99.99
2018-09-15T07:23:12.650Z,99.99
2018-09-15T07:24:12.528Z,99.99
2018-09-15T07:25:12.423Z,99.99
2018-09-15T07:26:12.287Z,99.99
2018-09-15T07:27:12.162Z,99.99
2018-09-15T07:28:12.104Z,99.99
2018-09-15T07:29:11.917Z,99.99
2018-09-15T07:30:11.834Z,99.99
2018-09-15T07:31:11.805Z,99.99
2018-09-15T07:32:11.554Z,99.99
2018-09-15T07:33:11.430Z,99.99
2018-09-15T07:34:11.310Z,99.99
2018-09-15T07:35:11.191Z,99.99
2018-09-15T07:36:11.078Z,99.99
2018-09-15T07:37:10.944Z,99.99
2018-09-15T07:38:10.823Z,99.99
2018-09-15T07:39:10.702Z,99.99
2018-09-15T07:40:10.584Z,99.99
2018-09-15T07:41:10.458Z,99.99
2018-09-15T07:42:10.337Z,99.99
2018-09-15T07:43:10.217Z,99.99
2018-09-15T07:44:10.104Z,99.99
2018-09-15T07:45:09.972Z,99.99
2018-09-15T07:46:09.851Z,99.99
2018-09-15T07:47:09.737Z,99.99
2018-09-15T07:48:09.614Z,99.99
2018-09-15T07:49:09.488Z,99.99
2018-09-15T07:50:09.367Z,99.99
2018-09-15T07:51:09.249Z,99.99
2018-09-15T07:52:09.126Z,99.99
2018-09-15T07:53:09.004Z,99.99
2018-09-15T07:54:08.884Z,99.99
2018-09-15T07:55:08.762Z,99.99
2018-09-15T07:56:08.646Z,99.99
2018-09-15T07:57:08.523Z,99.99
2018-09-15T07:58:08.401Z,99.99
2018-09-15T07:59:08.282Z,99.99
2018-09-15T08:00:08.161Z,99.99
2018-09-15T08:01:08.038Z,99.99
2018-09-15T08:02:07.916Z,99.99
2018-09-15T08:03:07.797Z,99.99
2018-09-15T08:04:07.745Z,99.99
2018-09-15T08:05:07.597Z,99.99
2018-09-15T08:06:07.435Z,99.99
2018-09-15T08:07:07.336Z,99.99
2018-09-15T08:08:07.194Z,99.99
2018-09-15T08:09:07.073Z,99.99
2018-09-15T08:10:06.957Z,99.99
2018-09-15T08:11:06.927Z,99.99
2018-09-15T08:12:06.723Z,99.99
2018-09-15T08:13:06.594Z,99.99
2018-09-15T08:14:06.481Z,99.99
2018-09-15T08:15:06.355Z,99.99
2018-09-15T08:16:06.251Z,99.99
2018-09-15T08:17:06.856Z,99.99
2018-09-15T08:18:05.994Z,99.99
2018-09-15T08:19:05.875Z,99.99
2018-09-15T08:20:05.754Z,99.99
2018-09-15T08:21:05.632Z,99.99
2018-09-15T08:22:05.513Z,99.99
2018-09-15T08:23:05.394Z,99.99
2018-09-15T08:24:05.277Z,99.99
2018-09-15T08:25:05.166Z,99.99
2018-09-15T08:26:05.038Z,99.99
2018-09-15T08:27:04.915Z,99.99
2018-09-15T08:28:04.793Z,99.99
2018-09-15T08:29:04.673Z,99.99
2018-09-15T08:30:04.555Z,99.99
2018-09-15T08:31:04.439Z,99.99
2018-09-15T08:32:04.387Z,99.99
2018-09-15T08:33:04.193Z,99.99
2018-09-15T08:34:04.076Z,99.99
2018-09-15T08:35:03.956Z,99.99
2018-09-15T08:36:03.840Z,99.99
2018-09-15T08:37:03.720Z,99.99
2018-09-15T08:38:03.598Z,99.99
2018-09-15T08:39:03.478Z,99.99
2018-09-15T08:40:03.363Z,99.99
2018-09-15T08:41:03.266Z,99.99
2018-09-15T08:42:03.117Z,99.99
2018-09-15T08:43:02.998Z,99.99
2018-09-15T08:44:02.880Z,99.99
2018-09-15T08:45:02.758Z,99.99
2018-09-15T08:46:02.646Z,99.99
2018-09-15T08:47:02.518Z,99.99
2018-09-15T08:48:02.399Z,99.99
2018-09-15T08:49:02.286Z,99.99
2018-09-15T08:50:02.170Z,99.99
2018-09-15T08:51:02.042Z,99.99
2018-09-15T08:52:01.923Z,99.99
2018-09-15T08:53:01.809Z,99.99
2018-09-15T08:54:01.684Z,99.99
2018-09-15T08:55:01.567Z,99.99
2018-09-15T08:56:01.489Z,99.99
2018-09-15T08:57:01.328Z,99.99
2018-09-15T08:58:01.212Z,99.99
2018-09-15T08:59:01.089Z,99.99
2018-09-15T09:00:00.968Z,99.99
2018-09-15T09:01:00.848Z,99.99
2018-09-15T09:02:00.732Z,99.99
2018-09-15T09:03:00.612Z,99.99
2018-09-15T09:04:00.493Z,99.99
2018-09-15T09:05:00.373Z,99.99
2018-09-15T09:06:00.253Z,99.99
2018-09-15T09:07:00.136Z,99.99
2018-09-15T09:08:00.042Z,99.99
2018-09-15T09:08:59.897Z,99.99
2018-09-15T09:09:59.778Z,99.99
2018-09-15T09:10:59.659Z,99.99
2018-09-15T09:11:59.543Z,99.99
2018-09-15T09:12:59.421Z,99.99
2018-09-15T09:13:59.301Z,99.30
2018-09-15T09:14:59.210Z,99.99
2018-09-15T09:15:59.069Z,98.44
2018-09-15T09:16:58.950Z,99.40
2018-09-15T09:17:58.830Z,99.99
2018-09-15T09:18:58.714Z,97.57
2018-09-15T09:19:58.638Z,95.84
2018-09-15T09:20:58.473Z,99.30
2018-09-15T09:21:58.357Z,98.24
2018-09-15T09:22:58.239Z,96.80
2018-09-15T09:23:58.125Z,95.89
2018-09-15T09:24:58.003Z,96.90
2018-09-15T09:25:57.965Z,99.99
2018-09-15T09:26:57.767Z,99.99
2018-09-15T09:27:57.650Z,97.24
2018-09-15T09:28:57.531Z,98.19
2018-09-15T09:29:57.416Z,99.99
2018-09-15T09:30:57.359Z,99.40
2018-09-15T09:31:57.184Z,95.65
2018-09-15T09:32:57.061Z,94.30
2018-09-15T09:33:56.939Z,92.08
2018-09-15T09:34:56.902Z,95.26
2018-09-15T09:35:56.705Z,93.19
2018-09-15T09:36:56.584Z,90.78
2018-09-15T09:37:56.467Z,87.76
2018-09-15T09:38:56.348Z,90.83
2018-09-15T09:39:56.231Z,94.01
2018-09-15T09:40:56.130Z,93.67
2018-09-15T09:41:55.993Z,90.25
2018-09-15T09:42:55.876Z,87.07
2018-09-15T09:43:56.383Z,86.40
2018-09-15T09:44:55.640Z,87.22
2018-09-15T09:45:55.522Z,88.04
2018-09-15T09:46:55.404Z,88.13
2018-09-15T09:47:55.314Z,85.20
2018-09-15T09:48:55.168Z,85.10
2018-09-15T09:49:55.052Z,86.02
2018-09-15T09:50:54.991Z,86.79
2018-09-15T09:51:54.813Z,86.02
2018-09-15T09:52:54.695Z,87.18
2018-09-15T09:53:54.580Z,86.31
2018-09-15T09:54:54.463Z,83.23
2018-09-15T09:55:54.342Z,83.23
2018-09-15T09:56:54.228Z,85.54
2018-09-15T09:57:54.106Z,87.95
2018-09-15T09:58:53.990Z,86.26
2018-09-15T09:59:53.871Z,85.39
2018-09-15T10:00:53.753Z,81.02
2018-09-15T10:01:53.639Z,83.04
2018-09-15T10:02:53.516Z,81.79
2018-09-15T10:03:53.399Z,82.46
2018-09-15T10:04:53.282Z,83.14
2018-09-15T10:05:53.162Z,81.30
2018-09-15T10:06:53.062Z,80.83
2018-09-15T10:07:52.931Z,82.46
2018-09-15T10:08:52.818Z,85.74
2018-09-15T10:09:52.690Z,84.00
2018-09-15T10:10:52.572Z,84.67
2018-09-15T10:11:52.458Z,83.51
2018-09-15T10:12:52.335Z,79.36
2018-09-15T10:13:52.216Z,80.29
2018-09-15T10:14:52.100Z,80.38
2018-09-15T10:15:52.036Z,80.77
2018-09-15T10:16:52.393Z,82.70
2018-09-15T10:17:51.749Z,80.58
2018-09-15T10:18:51.630Z,83.18
2018-09-15T10:19:51.510Z,81.29
2018-09-15T10:20:51.391Z,78.98
2018-09-15T10:21:51.274Z,79.31
2018-09-15T10:22:51.154Z,77.44
2018-09-15T10:23:51.037Z,82.10
2018-09-15T10:24:51.060Z,75.93
2018-09-15T10:25:50.851Z,74.97
2018-09-15T10:26:50.686Z,75.26
2018-09-15T10:27:50.569Z,76.28
2018-09-15T10:28:50.452Z,77.76
2018-09-15T10:29:50.335Z,74.88
2018-09-15T10:30:50.218Z,74.97
2018-09-15T10:31:50.103Z,75.23
2018-09-15T10:32:50.159Z,76.61
2018-09-15T10:33:49.862Z,75.80
2018-09-15T10:34:49.745Z,77.09
2018-09-15T10:35:49.627Z,75.65
2018-09-15T10:36:49.510Z,77.19
2018-09-15T10:37:49.393Z,75.36
2018-09-15T10:38:49.276Z,74.74
2018-09-15T10:39:49.159Z,74.45
2018-09-15T10:40:49.038Z,76.42
2018-09-15T10:41:48.924Z,74.43
2018-09-15T10:42:48.804Z,71.54
2018-09-15T10:43:48.688Z,70.96
2018-09-15T10:44:48.577Z,71.44
2018-09-15T10:45:48.508Z,73.08
2018-09-15T10:46:48.488Z,70.86
2018-09-15T10:47:48.220Z,71.86
2018-09-15T10:48:48.101Z,70.38
2018-09-15T10:49:47.982Z,69.42
2018-09-15T10:50:47.870Z,72.54
2018-09-15T10:51:47.751Z,70.13
2018-09-15T10:52:47.632Z,67.81
2018-09-15T10:53:47.515Z,67.75
2018-09-15T10:54:47.409Z,71.32
2018-09-15T10:55:47.287Z,71.32
2018-09-15T10:56:47.163Z,69.80
2018-09-15T10:57:47.046Z,71.15
2018-09-15T10:58:46.931Z,73.15
2018-09-15T10:59:46.815Z,69.29
2018-09-15T11:00:46.768Z,69.10
2018-09-15T11:01:46.580Z,69.78
2018-09-15T11:02:46.465Z,68.65
2018-09-15T11:03:46.348Z,68.55
2018-09-15T11:04:46.231Z,68.01
2018-09-15T11:05:46.139Z,67.14
2018-09-15T11:06:46.000Z,66.75
2018-09-15T11:07:45.885Z,64.59
2018-09-15T11:08:45.767Z,68.30
2018-09-15T11:09:45.653Z,64.92
2018-09-15T11:10:45.536Z,63.85
2018-09-15T11:11:45.420Z,64.89
2018-09-15T11:12:45.301Z,66.46
2018-09-15T11:13:45.233Z,65.40
2018-09-15T11:14:45.082Z,64.63
2018-09-15T11:15:44.956Z,65.78
2018-09-15T11:16:44.845Z,62.82
2018-09-15T11:17:44.725Z,65.14
2018-09-15T11:18:44.620Z,65.05
2018-09-15T11:19:44.497Z,63.34
2018-09-15T11:20:44.389Z,63.92
2018-09-15T11:21:44.259Z,61.92
2018-09-15T11:22:44.189Z,61.54
2018-09-15T11:23:44.032Z,62.12
2018-09-15T11:24:43.915Z,61.51
2018-09-15T11:25:43.803Z,62.57
2018-09-15T11:26:43.684Z,63.95
2018-09-15T11:27:43.608Z,62.02
2018-09-15T11:28:43.521Z,63.28
2018-09-15T11:29:43.335Z,62.50
2018-09-15T11:30:43.218Z,61.54
2018-09-15T11:31:43.103Z,63.28
2018-09-15T11:32:43.500Z,64.95
2018-09-15T11:33:42.870Z,61.95
2018-09-15T11:34:42.753Z,62.92
2018-09-15T11:35:42.640Z,64.76
2018-09-15T11:36:42.523Z,64.47
2018-09-15T11:37:42.405Z,66.33
2018-09-15T11:38:42.291Z,64.37
2018-09-15T11:39:42.174Z,66.50
2018-09-15T11:40:42.058Z,66.08
2018-09-15T11:41:41.944Z,64.43
2018-09-15T11:42:41.831Z,67.04
2018-09-15T11:43:41.748Z,67.33
2018-09-15T11:44:41.596Z,67.82
2018-09-15T11:45:41.479Z,68.88
2018-09-15T11:46:41.368Z,64.98
2018-09-15T11:47:41.249Z,66.33
2018-09-15T11:48:41.133Z,67.49
2018-09-15T11:49:41.018Z,67.97
2018-09-15T11:50:40.902Z,67.97
2018-09-15T11:51:40.787Z,66.94
2018-09-15T11:52:40.667Z,66.33
2018-09-15T11:53:40.562Z,65.47
2018-09-15T11:54:40.440Z,67.20
2018-09-15T11:55:40.348Z,65.85
2018-09-15T11:56:40.319Z,67.62
2018-09-15T11:57:40.090Z,66.17
2018-09-15T11:58:39.976Z,68.01
2018-09-15T11:59:39.863Z,64.63
2018-09-15T12:00:39.741Z,63.73
2018-09-15T12:01:39.627Z,65.59
2018-09-15T12:02:39.511Z,64.63
2018-09-15T12:03:39.394Z,63.08
2018-09-15T12:04:39.275Z,62.95
2018-09-15T12:05:39.161Z,65.34
2018-09-15T12:06:39.060Z,66.01
2018-09-15T12:07:38.933Z,66.27
2018-09-15T12:08:38.812Z,68.71
2018-09-15T12:09:38.696Z,70.29
2018-09-15T12:10:38.575Z,65.75
2018-09-15T12:11:38.458Z,63.43
2018-09-15T12:12:38.342Z,65.37
2018-09-15T12:13:38.224Z,64.59
2018-09-15T12:14:38.109Z,65.47
2018-09-15T12:15:38.131Z,64.24
2018-09-15T12:16:37.873Z,65.40
2018-09-15T12:17:37.758Z,64.08
2018-09-15T12:18:37.695Z,62.53
2018-09-15T12:19:37.540Z,63.79
2018-09-15T12:20:37.405Z,62.44
2018-09-15T12:21:37.345Z,62.73
2018-09-15T12:22:37.174Z,63.11
2018-09-15T12:23:37.075Z,61.37
2018-09-15T12:24:36.937Z,63.11
2018-09-15T12:25:36.820Z,62.50
2018-09-15T12:26:36.710Z,62.70
2018-09-15T12:27:36.588Z,63.66
2018-09-15T12:28:36.470Z,63.76
2018-09-15T12:29:36.352Z,63.95
2018-09-15T12:30:36.239Z,64.34
2018-09-15T12:31:36.119Z,65.11
2018-09-15T12:32:36.003Z,62.31
2018-09-15T12:33:36.061Z,62.79
2018-09-15T12:34:35.767Z,63.89
2018-09-15T12:35:35.648Z,63.89
2018-09-15T12:36:35.533Z,64.08
2018-09-15T12:37:35.417Z,63.82
2018-09-15T12:38:35.299Z,62.63
2018-09-15T12:39:35.265Z,63.60
2018-09-15T12:40:35.062Z,63.89
2018-09-15T12:41:34.954Z,62.53
2018-09-15T12:42:34.830Z,63.11
2018-09-15T12:43:34.725Z,63.89
2018-09-15T12:44:34.594Z,64.66
2018-09-15T12:45:34.749Z,59.80
2018-09-15T12:46:34.365Z,60.18
2018-09-15T12:47:34.247Z,64.08
2018-09-15T12:48:34.233Z,64.08
2018-09-15T12:49:34.008Z,64.18
2018-09-15T12:50:34.309Z,62.12